Woodcote, United Kingdom
Current Conditions -  °F | °C
As of 1:50 AM on Saturday 22 Nov 2014 (Local Time) from EGOS Reporting Station
Drizzle Drizzle  
Wind Chill: 41°   Ceiling: 300
Heat Index: 46°   Visibility: 1.3mi
Dew Point: 46°   Wind: 10mph
Humidity: 100%   Direction: 130°SE
Pressure: 29.77"   Gusts: NA
Location:  52.73°N, 2.33°W
Report Text: EGOS 220150Z AUTO 13009KT 2200 -DZ OVC003/// 08/08 Q1008
Loading
Personal Weather Stations






























Interactive Weather Map New forecast layout! Learn more

10-Day Weather Forecast

Advertisements
Track Severe Weather on mobile